Time;durP1;ratioP1;P1;durP2;ratioP2;P2;SDS_P1;SDS_P2;PMS_P1;PMS_P2;Temp;Humidity;BMP_temperature;BMP_pressure;BME280_temperature;BME280_humidity;BME280_pressure;Samples;Min_cycle;Max_cycle;Signal;HPM_P1;HPM_P2
2021/12/30 00:01:13;;;;;;;280.13;205.65;;;;;;;25.89;42.02;101570.06;5022978;28;20494;-42
2021/12/30 00:03:42;;;;;;;281.17;207.55;;;;;;;25.94;42.04;101574.50;5023570;28;20030;-42
2021/12/30 00:06:10;;;;;;;266.38;196.10;;;;;;;25.87;42.25;101571.78;5023832;28;20064;-42
2021/12/30 00:08:39;;;;;;;272.13;199.40;;;;;;;25.93;42.01;101566.59;5023495;28;20040;-43
2021/12/30 00:11:09;;;;;;;285.73;212.38;;;;;;;25.86;42.00;101572.63;5023640;28;20738;-43
2021/12/30 00:13:39;;;;;;;271.02;202.13;;;;;;;25.81;42.25;101579.56;5023482;28;20179;-44
2021/12/30 00:16:07;;;;;;;274.52;203.55;;;;;;;25.84;42.25;101575.22;5023621;28;20092;-44
2021/12/30 00:18:36;;;;;;;289.63;212.82;;;;;;;25.79;42.16;101580.41;5023079;28;20517;-45
2021/12/30 00:21:05;;;;;;;278.38;203.52;;;;;;;25.82;42.10;101590.06;5021913;28;20034;-46
2021/12/30 00:23:33;;;;;;;280.48;208.55;;;;;;;25.77;42.22;101582.13;5023139;28;20025;-43
2021/12/30 00:26:02;;;;;;;292.00;211.23;;;;;;;25.82;42.17;101578.69;5023216;28;20032;-43
2021/12/30 00:28:31;;;;;;;297.98;216.18;;;;;;;25.78;42.48;101583.03;5022979;28;20025;-44
2021/12/30 00:30:59;;;;;;;285.17;206.15;;;;;;;25.85;42.00;101584.88;5022627;28;20033;-42
2021/12/30 00:33:30;;;;;;;279.77;211.15;;;;;;;25.79;41.95;101580.41;5023477;28;20021;-43
2021/12/30 00:35:59;;;;;;;294.17;215.55;;;;;;;25.75;42.15;101582.97;5023400;28;20028;-42
2021/12/30 00:38:27;;;;;;;292.83;216.15;;;;;;;25.69;42.36;101581.16;5023114;28;20036;-42
2021/12/30 00:40:56;;;;;;;294.17;220.27;;;;;;;25.79;42.06;101588.28;5025383;28;20112;-43
2021/12/30 00:43:25;;;;;;;299.75;216.50;;;;;;;25.81;42.26;101583.09;5026827;28;20494;-42
2021/12/30 00:45:53;;;;;;;292.55;219.95;;;;;;;25.81;42.20;101580.47;5026640;28;20065;-42
2021/12/30 00:48:23;;;;;;;300.33;217.85;;;;;;;25.72;42.20;101578.56;5027018;28;20087;-42
2021/12/30 00:50:52;;;;;;;303.55;221.80;;;;;;;25.69;42.41;101585.50;5026932;28;20078;-42
2021/12/30 00:53:20;;;;;;;297.77;220.88;;;;;;;25.74;42.40;101578.59;5026748;28;20558;-44
2021/12/30 00:55:47;;;;;;;296.05;223.02;;;;;;;25.75;42.17;101580.34;5026720;28;20040;-43
2021/12/30 00:58:16;;;;;;;291.80;220.85;;;;;;;25.65;42.37;101583.72;5026394;28;20022;-46
2021/12/30 01:00:46;;;;;;;296.10;221.57;;;;;;;25.64;42.35;101582.81;5025694;28;20053;-43
2021/12/30 01:03:15;;;;;;;288.08;214.40;;;;;;;25.65;42.29;101575.81;5026214;28;20037;-42
2021/12/30 01:05:46;;;;;;;305.08;223.38;;;;;;;25.74;42.17;101586.47;4992684;28;20029;-42
2021/12/30 01:08:16;;;;;;;315.63;231.27;;;;;;;25.72;42.25;101578.56;5009366;28;20532;-42
2021/12/30 01:10:45;;;;;;;290.55;216.20;;;;;;;25.69;42.22;101586.41;5026077;28;20116;-42
2021/12/30 01:13:20;;;;;;;297.83;220.90;;;;;;;25.68;42.14;101594.25;5026175;28;20450;-42
2021/12/30 01:15:57;;;;;;;284.65;213.68;;;;;;;25.63;42.46;101581.94;5026520;28;20108;-43
2021/12/30 01:18:43;;;;;;;296.20;219.45;;;;;;;25.74;42.39;101581.22;5025957;28;20076;-43
2021/12/30 01:21:14;;;;;;;286.52;217.95;;;;;;;25.73;42.00;101580.31;5026126;28;20026;-42
2021/12/30 01:23:43;;;;;;;301.55;222.90;;;;;;;25.68;42.21;101578.47;5026211;28;20083;-42
2021/12/30 01:26:12;;;;;;;296.73;217.18;;;;;;;25.60;42.55;101581.88;5014702;28;20026;-43
2021/12/30 01:28:41;;;;;;;299.23;221.30;;;;;;;25.59;42.62;101584.47;5006349;28;20041;-43
2021/12/30 01:31:10;;;;;;;304.55;225.43;;;;;;;25.39;42.38;101552.59;5006518;28;20022;-43
2021/12/30 01:33:44;;;;;;;309.00;225.23;;;;;;;25.65;42.27;101581.06;5006118;28;20030;-45
2021/12/30 01:36:14;;;;;;;305.83;226.27;;;;;;;25.62;42.56;101579.25;5006322;28;20437;-42
2021/12/30 01:38:44;;;;;;;307.02;221.60;;;;;;;25.62;42.29;101579.25;5005729;28;20033;-42
2021/12/30 01:41:13;;;;;;;294.30;216.10;;;;;;;25.57;42.36;101584.44;5005770;28;20491;-42
2021/12/30 01:43:41;;;;;;;289.40;216.32;;;;;;;25.62;42.45;101579.25;5006157;28;20038;-42
2021/12/30 01:46:15;;;;;;;305.63;224.13;;;;;;;25.59;42.46;101576.59;5006069;28;20415;-42
2021/12/30 01:48:44;;;;;;;304.40;223.88;;;;;;;25.53;42.70;101577.38;5005718;28;20033;-42
2021/12/30 01:51:13;;;;;;;298.50;219.98;;;;;;;25.59;42.46;101573.97;5004959;28;20471;-43
2021/12/30 01:53:49;;;;;;;298.45;219.10;;;;;;;25.57;42.53;101581.81;5005390;28;20077;-42
2021/12/30 01:56:18;;;;;;;302.27;224.82;;;;;;;25.46;42.70;101580.78;5005974;28;20121;-43
2021/12/30 01:58:49;;;;;;;303.15;223.85;;;;;;;25.46;42.82;101586.91;5004227;28;20040;-42
2021/12/30 02:01:21;;;;;;;286.05;214.90;;;;;;;25.43;42.80;101580.72;5005647;28;20546;-42
2021/12/30 02:03:50;;;;;;;292.20;211.32;;;;;;;25.51;42.86;101594.84;5005956;28;20053;-43
2021/12/30 02:06:22;;;;;;;287.73;213.73;;;;;;;25.43;42.72;101585.97;5005533;28;20036;-42
2021/12/30 02:08:51;;;;;;;293.08;215.95;;;;;;;25.45;42.52;101587.75;5005406;28;20510;-43
2021/12/30 02:11:23;;;;;;;281.30;209.45;;;;;;;25.46;42.88;101592.16;5005759;28;20195;-43
2021/12/30 02:13:51;;;;;;;284.00;211.23;;;;;;;25.52;42.29;101595.75;5005469;28;20040;-43
2021/12/30 02:16:21;;;;;;;280.65;205.95;;;;;;;25.62;42.03;101588.06;5004328;28;20034;-42
2021/12/30 02:18:52;;;;;;;279.92;208.35;;;;;;;25.49;42.81;101599.19;5005404;28;20108;-48
2021/12/30 02:21:21;;;;;;;283.67;200.18;;;;;;;25.54;42.29;101596.66;5005290;28;20391;-42
2021/12/30 02:23:49;;;;;;;286.58;203.32;;;;;;;25.67;42.06;101610.84;5005301;28;20079;-42
2021/12/30 02:26:20;;;;;;;272.80;194.48;;;;;;;25.67;41.86;101614.38;5005551;28;20029;-42
2021/12/30 02:28:48;;;;;;;287.98;205.90;;;;;;;25.58;42.41;101615.13;5005237;28;20072;-42
2021/12/30 02:31:20;;;;;;;259.85;191.10;;;;;;;25.67;41.91;101619.66;5004879;28;20026;-42
2021/12/30 02:33:49;;;;;;;272.35;191.05;;;;;;;25.67;41.76;101618.75;5005187;28;20046;-43
2021/12/30 02:36:25;;;;;;;257.17;187.63;;;;;;;25.68;41.91;101620.50;5005515;28;20021;-43
2021/12/30 02:38:54;;;;;;;256.27;186.60;;;;;;;25.57;42.10;101617.72;5005061;28;20492;-42
2021/12/30 02:41:23;;;;;;;262.33;191.93;;;;;;;25.58;41.98;101622.09;5004669;28;20783;-42
2021/12/30 02:43:52;;;;;;;263.20;190.70;;;;;;;25.55;42.00;101628.19;5004792;28;20033;-42
2021/12/30 02:46:30;;;;;;;252.48;187.18;;;;;;;25.57;41.90;101633.47;5005049;28;20062;-42
2021/12/30 02:49:03;;;;;;;256.80;182.93;;;;;;;25.59;41.67;101635.28;5004979;28;20026;-42
2021/12/30 02:51:37;;;;;;;259.60;188.55;;;;;;;25.50;42.09;101635.13;5004015;28;20132;-42
2021/12/30 02:54:06;;;;;;;258.15;188.60;;;;;;;25.58;41.94;101651.00;5004721;28;20033;-42
2021/12/30 02:56:36;;;;;;;252.38;183.80;;;;;;;25.57;42.19;101646.59;5004158;28;20092;-42
2021/12/30 02:59:11;;;;;;;262.50;195.00;;;;;;;25.56;42.06;101651.00;5003707;28;20124;-43
2021/12/30 03:01:40;;;;;;;244.25;175.73;;;;;;;25.58;42.00;101646.66;5004319;28;20045;-42
2021/12/30 03:04:10;;;;;;;263.73;188.45;;;;;;;25.49;42.06;101635.97;5004556;28;20029;-43
2021/12/30 03:06:39;;;;;;;264.73;194.43;;;;;;;25.50;42.12;101647.38;5004852;28;20028;-43
2021/12/30 03:09:08;;;;;;;272.73;195.73;;;;;;;25.50;42.22;101657.88;5004603;28;20030;-43
2021/12/30 03:15:00;;;;;;;260.50;193.00;;;;;;;25.43;42.16;101660.38;5004502;28;20053;-43
2021/12/30 03:17:28;;;;;;;259.00;184.10;;;;;;;25.45;42.36;101658.69;5004428;28;20907;-43
2021/12/30 03:19:58;;;;;;;263.23;190.38;;;;;;;25.36;42.54;101654.97;5004322;28;20038;-46
2021/12/30 03:22:26;;;;;;;259.02;186.98;;;;;;;25.42;42.19;101653.38;5003190;28;20034;-42
2021/12/30 03:24:55;;;;;;;255.45;182.93;;;;;;;25.45;42.41;101652.56;4986884;28;20022;-47
2021/12/30 03:27:23;;;;;;;261.30;190.73;;;;;;;25.46;42.05;101649.06;5004378;28;20030;-43
2021/12/30 03:29:51;;;;;;;265.00;192.05;;;;;;;25.48;42.03;101648.22;5004348;28;20549;-42
2021/12/30 03:32:20;;;;;;;277.27;201.45;;;;;;;25.36;42.36;101649.72;5004126;28;20033;-43
2021/12/30 03:34:48;;;;;;;278.80;203.45;;;;;;;25.32;42.39;101646.16;5003995;28;20076;-43
2021/12/30 03:37:17;;;;;;;272.80;198.02;;;;;;;25.36;42.44;101652.34;5003711;28;20550;-43
2021/12/30 03:39:47;;;;;;;274.85;200.02;;;;;;;25.38;42.43;101658.50;5004106;28;20032;-42
2021/12/30 03:42:16;;;;;;;277.73;200.38;;;;;;;25.31;42.61;101653.16;5002968;28;20037;-42
2021/12/30 03:44:45;;;;;;;283.20;205.95;;;;;;;25.13;42.59;101622.19;5004070;28;20053;-43
2021/12/30 03:47:17;;;;;;;294.60;210.32;;;;;;;25.29;42.86;101659.22;5004326;28;20033;-42
2021/12/30 03:49:46;;;;;;;281.60;203.07;;;;;;;25.28;42.97;101655.72;5004312;28;21469;-42
2021/12/30 03:52:25;;;;;;;288.70;206.95;;;;;;;25.28;42.60;101654.81;5002854;28;20113;-42
2021/12/30 03:54:53;;;;;;;277.02;202.88;;;;;;;25.24;42.80;101656.53;5003990;28;20034;-42
2021/12/30 03:57:22;;;;;;;278.80;204.32;;;;;;;25.31;42.68;101653.16;5004119;28;20129;-42
2021/12/30 03:59:49;;;;;;;300.75;218.40;;;;;;;25.31;42.99;101647.00;5003799;28;20494;-42
2021/12/30 04:02:18;;;;;;;278.30;207.38;;;;;;;25.24;42.75;101653.91;5003749;28;20069;-43
2021/12/30 04:04:46;;;;;;;274.25;197.45;;;;;;;25.32;42.26;101654.91;5004021;28;20041;-46
2021/12/30 04:07:15;;;;;;;276.88;200.25;;;;;;;25.33;42.29;101654.06;5004083;28;20092;-42
2021/12/30 04:09:43;;;;;;;292.33;205.80;;;;;;;25.37;42.45;101648.88;5003843;28;20117;-54
2021/12/30 04:12:12;;;;;;;264.27;192.55;;;;;;;25.33;42.29;101640.91;5003645;28;20033;-42
2021/12/30 04:14:40;;;;;;;290.35;210.60;;;;;;;25.24;42.85;101638.13;5004084;28;20026;-43
2021/12/30 04:17:09;;;;;;;302.00;218.63;;;;;;;25.21;42.67;101640.72;5006384;28;20033;-42
2021/12/30 04:19:38;;;;;;;301.33;219.85;;;;;;;25.24;42.92;101640.78;5006124;28;20034;-42
2021/12/30 04:22:06;;;;;;;291.88;216.57;;;;;;;25.20;42.78;101643.31;5007457;28;20034;-42
2021/12/30 04:24:35;;;;;;;295.35;216.77;;;;;;;25.16;42.82;101648.50;5006516;28;20034;-52
2021/12/30 04:27:04;;;;;;;296.88;220.88;;;;;;;25.14;43.11;101649.34;5007627;28;20022;-42
2021/12/30 04:29:32;;;;;;;294.80;216.70;;;;;;;25.12;42.82;101644.03;5007024;28;20441;-42
2021/12/30 04:32:01;;;;;;;300.70;217.38;;;;;;;25.12;43.30;101636.16;5007361;28;20029;-44
2021/12/30 04:34:29;;;;;;;300.52;218.60;;;;;;;25.12;42.91;101643.16;5007059;28;20042;-43
2021/12/30 04:36:58;;;;;;;308.13;225.70;;;;;;;25.09;43.19;101638.72;5007512;28;20030;-43
2021/12/30 04:39:29;;;;;;;299.85;224.45;;;;;;;25.04;43.14;101632.53;5007541;28;21124;-46
2021/12/30 04:41:58;;;;;;;300.63;222.70;;;;;;;25.00;43.05;101635.94;5007256;28;20038;-46
2021/12/30 04:44:27;;;;;;;321.70;230.48;;;;;;;24.97;43.70;101628.00;5007380;28;20064;-43
2021/12/30 04:46:56;;;;;;;314.52;224.60;;;;;;;24.97;43.67;101628.91;5007046;28;20046;-44
2021/12/30 04:49:25;;;;;;;307.17;224.10;;;;;;;25.05;43.35;101641.28;5006956;28;20030;-44
2021/12/30 04:51:54;;;;;;;310.55;230.63;;;;;;;24.93;43.41;101624.44;5007415;28;20042;-49
2021/12/30 04:54:22;;;;;;;312.00;230.85;;;;;;;24.98;43.53;101635.94;5006507;28;20092;-43
2021/12/30 04:56:51;;;;;;;306.65;229.52;;;;;;;25.00;43.58;101636.81;5006571;28;20037;-42
2021/12/30 04:59:20;;;;;;;312.48;230.23;;;;;;;24.96;43.35;101632.38;5006772;28;20029;-42
2021/12/30 05:01:48;;;;;;;307.05;229.20;;;;;;;24.98;43.13;101633.31;5006610;28;20380;-46
2021/12/30 05:04:16;;;;;;;320.80;232.63;;;;;;;24.96;43.67;101640.25;5006523;28;20065;-48
2021/12/30 05:06:45;;;;;;;308.60;231.32;;;;;;;24.99;43.55;101645.53;5006746;28;20379;-42
2021/12/30 05:09:13;;;;;;;334.05;242.27;;;;;;;25.10;43.04;101643.13;5006524;28;20113;-48
2021/12/30 05:11:42;;;;;;;307.75;230.77;;;;;;;24.97;43.60;101638.50;5006302;28;20057;-43
2021/12/30 05:14:11;;;;;;;324.13;236.23;;;;;;;25.10;43.45;101650.13;5006389;28;20053;-43
2021/12/30 05:16:40;;;;;;;313.73;237.13;;;;;;;25.00;43.32;101652.56;5006798;28;20498;-42
2021/12/30 05:19:09;;;;;;;313.13;233.30;;;;;;;25.04;43.46;101645.66;5006794;28;20030;-42
2021/12/30 05:21:37;;;;;;;313.40;234.57;;;;;;;25.00;43.42;101644.69;5006627;28;20121;-43
2021/12/30 05:24:06;;;;;;;324.27;234.00;;;;;;;24.97;43.18;101654.25;5006305;28;20042;-43
2021/12/30 05:26:35;;;;;;;313.33;235.63;;;;;;;24.95;43.67;101648.97;5005582;28;20057;-45
2021/12/30 05:29:04;;;;;;;322.20;234.80;;;;;;;24.94;43.52;101652.47;5005884;28;20030;-43
2021/12/30 05:31:33;;;;;;;316.70;238.77;;;;;;;24.92;43.88;101642.75;5005796;28;20481;-43
2021/12/30 05:34:01;;;;;;;327.50;241.00;;;;;;;24.94;43.63;101641.06;5006172;28;20741;-43
2021/12/30 05:36:30;;;;;;;325.13;235.60;;;;;;;24.93;43.38;101647.16;5006477;28;20034;-42
2021/12/30 05:38:59;;;;;;;340.90;248.85;;;;;;;24.93;43.77;101648.06;5006349;28;20033;-42
2021/12/30 05:41:28;;;;;;;320.17;241.38;;;;;;;24.89;43.47;101651.47;5005799;28;20754;-42
2021/12/30 05:43:58;;;;;;;326.48;239.18;;;;;;;24.96;43.52;101648.13;5004783;28;20376;-42
2021/12/30 05:46:27;;;;;;;329.20;239.55;;;;;;;24.91;43.47;101648.88;5006289;28;20026;-42
2021/12/30 05:48:56;;;;;;;323.10;242.50;;;;;;;24.93;43.83;101652.41;5006030;28;20052;-42
2021/12/30 05:51:24;;;;;;;326.63;239.35;;;;;;;24.97;43.51;101651.63;5005820;28;20091;-42
2021/12/30 05:53:53;;;;;;;318.15;232.68;;;;;;;24.93;43.51;101655.94;5005519;28;20030;-42
2021/12/30 05:56:21;;;;;;;326.58;240.88;;;;;;;24.91;43.40;101655.03;5005903;28;20398;-49
2021/12/30 05:58:50;;;;;;;328.20;241.95;;;;;;;24.93;43.53;101663.81;5015540;28;20025;-43
2021/12/30 06:01:18;;;;;;;334.08;242.57;;;;;;;24.91;43.62;101669.88;5025461;28;20486;-43
2021/12/30 06:03:47;;;;;;;321.98;234.25;;;;;;;24.87;43.50;101668.94;5025390;28;20041;-51
2021/12/30 06:06:15;;;;;;;330.65;247.27;;;;;;;24.91;43.57;101659.38;5025126;28;20080;-42
2021/12/30 06:08:44;;;;;;;316.17;235.75;;;;;;;24.88;43.49;101665.44;5025335;28;20802;-43
2021/12/30 06:11:12;;;;;;;330.65;239.05;;;;;;;24.91;43.71;101675.13;5022544;28;20038;-44
2021/12/30 06:13:40;;;;;;;316.58;235.00;;;;;;;24.91;43.51;101665.50;5005766;28;20077;-51
2021/12/30 06:16:09;;;;;;;325.00;236.05;;;;;;;24.87;43.26;101666.31;5005971;28;20042;-42
2021/12/30 06:18:38;;;;;;;323.95;238.10;;;;;;;24.94;43.30;101665.59;5005377;28;20029;-43
2021/12/30 06:21:05;;;;;;;325.25;234.57;;;;;;;24.90;43.48;101666.38;5003879;28;20383;-42
2021/12/30 06:23:33;;;;;;;312.52;230.25;;;;;;;24.96;43.76;101662.97;5005227;28;20412;-43
2021/12/30 06:26:02;;;;;;;329.05;239.05;;;;;;;24.95;43.66;101667.34;5005320;28;21259;-42
2021/12/30 06:28:31;;;;;;;309.38;231.68;;;;;;;24.95;43.18;101664.72;5005379;28;20022;-42
2021/12/30 06:30:59;;;;;;;310.02;229.15;;;;;;;24.93;43.59;101662.91;5003728;28;20387;-52
2021/12/30 06:33:27;;;;;;;317.05;226.48;;;;;;;24.88;43.84;101662.81;5004979;28;20040;-43
2021/12/30 06:35:56;;;;;;;302.08;221.13;;;;;;;24.94;43.74;101659.44;5004967;28;20120;-45
2021/12/30 06:38:25;;;;;;;299.30;216.77;;;;;;;24.93;43.64;101660.28;5002806;28;20522;-42
2021/12/30 06:40:53;;;;;;;297.88;221.63;;;;;;;24.98;43.21;101662.16;5004885;28;20037;-43
2021/12/30 06:43:20;;;;;;;298.90;220.65;;;;;;;24.88;43.71;101661.09;5004904;28;20064;-45
2021/12/30 06:45:49;;;;;;;308.95;219.05;;;;;;;24.96;43.35;101666.50;5004889;28;20060;-43
2021/12/30 06:48:18;;;;;;;295.65;216.02;;;;;;;24.91;43.19;101673.38;5003533;28;20080;-42
2021/12/30 06:50:51;;;;;;;290.13;210.63;;;;;;;24.80;43.82;101665.28;5004646;28;20446;-47
2021/12/30 06:53:20;;;;;;;289.80;213.05;;;;;;;24.80;43.40;101674.91;5018605;28;20458;-43
2021/12/30 06:55:49;;;;;;;288.52;217.70;;;;;;;24.74;43.51;101675.66;5024198;28;20025;-43
2021/12/30 06:58:17;;;;;;;297.80;220.73;;;;;;;24.78;43.56;101674.88;5024285;28;20025;-48
2021/12/30 07:00:47;;;;;;;290.00;214.25;;;;;;;24.80;43.33;101678.41;5023718;28;20550;-43
2021/12/30 07:03:16;;;;;;;291.55;215.07;;;;;;;24.77;43.71;101677.47;5023454;28;20035;-42
2021/12/30 07:05:45;;;;;;;294.00;217.55;;;;;;;24.72;43.81;101670.38;5023050;28;20045;-43
2021/12/30 07:08:14;;;;;;;300.33;213.77;;;;;;;24.76;43.91;101678.31;5023280;28;20132;-42
2021/12/30 07:10:42;;;;;;;292.98;214.25;;;;;;;24.79;43.86;101683.66;5023636;28;20040;-43
2021/12/30 07:13:11;;;;;;;305.70;217.82;;;;;;;24.77;43.89;101682.72;5014322;28;20034;-42
2021/12/30 07:15:39;;;;;;;313.40;222.52;;;;;;;24.78;43.95;101685.38;5002281;28;20493;-44
2021/12/30 07:18:09;;;;;;;306.88;218.98;;;;;;;24.78;43.60;101685.38;5003436;28;20093;-53
2021/12/30 07:20:36;;;;;;;279.33;210.88;;;;;;;24.87;43.40;101682.94;5003188;28;20107;-43
2021/12/30 07:23:04;;;;;;;292.30;217.15;;;;;;;24.81;43.77;101680.19;5003456;28;20089;-43
2021/12/30 07:25:33;;;;;;;293.63;214.70;;;;;;;24.87;43.85;101671.56;5003748;28;20113;-43
2021/12/30 07:28:03;;;;;;;278.05;206.70;;;;;;;24.83;43.46;101673.22;5003808;28;20038;-42
2021/12/30 07:30:32;;;;;;;279.63;204.48;;;;;;;24.96;43.61;101665.59;5003746;28;20026;-42
2021/12/30 07:33:05;;;;;;;282.88;200.23;;;;;;;25.00;43.27;101665.69;5003408;28;20025;-43
2021/12/30 07:35:35;;;;;;;281.00;198.05;;;;;;;25.10;42.92;101672.00;5003685;28;20057;-43
2021/12/30 07:38:04;;;;;;;271.70;194.50;;;;;;;25.00;43.18;101664.81;5003525;28;20036;-44
2021/12/30 07:40:33;;;;;;;276.02;198.45;;;;;;;24.81;43.31;101659.19;5012712;28;20049;-43
2021/12/30 07:43:02;;;;;;;273.98;196.15;;;;;;;24.86;43.59;101661.91;5022892;28;20165;-45
2021/12/30 07:45:30;;;;;;;279.23;202.32;;;;;;;24.84;43.46;101677.63;5022886;28;20479;-43
2021/12/30 07:47:59;;;;;;;277.98;203.02;;;;;;;24.84;43.26;101679.34;5014049;28;20033;-43
2021/12/30 07:50:27;;;;;;;276.95;201.52;;;;;;;24.88;43.63;101668.97;5000788;28;20037;-43
2021/12/30 07:52:56;;;;;;;279.52;203.32;;;;;;;24.83;43.67;101678.47;5002998;28;20041;-43
2021/12/30 07:55:24;;;;;;;280.48;202.55;;;;;;;24.78;43.74;101684.50;5002232;28;20125;-43
2021/12/30 07:57:57;;;;;;;280.02;202.65;;;;;;;24.81;43.51;101684.56;5005998;28;20034;-50
2021/12/30 08:00:26;;;;;;;268.87;199.00;;;;;;;24.78;43.64;101681.88;4880101;28;3909987;-55
2021/12/30 08:02:54;;;;;;;272.38;197.10;;;;;;;24.83;43.65;101682.84;5023741;28;20026;-54
2021/12/30 08:05:23;;;;;;;266.33;192.60;;;;;;;24.90;43.69;101691.75;5022252;28;20030;-56
2021/12/30 08:07:52;;;;;;;265.40;192.48;;;;;;;24.85;43.85;101686.38;5023486;28;20087;-53
2021/12/30 08:10:22;;;;;;;254.43;188.75;;;;;;;24.80;43.74;101688.91;5022091;28;20029;-44
2021/12/30 08:12:52;;;;;;;263.25;189.45;;;;;;;24.94;43.29;101696.19;5021547;28;20091;-47
2021/12/30 08:15:21;;;;;;;261.38;188.30;;;;;;;24.86;43.58;101698.66;5023630;28;20038;-43
2021/12/30 08:17:50;;;;;;;271.77;193.05;;;;;;;24.86;43.46;101696.03;5022105;28;20030;-51
2021/12/30 08:20:19;;;;;;;272.88;193.55;;;;;;;24.78;44.08;101701.09;5023579;28;20064;-56
2021/12/30 08:22:47;;;;;;;265.58;195.98;;;;;;;24.82;43.60;101710.81;5023336;28;20084;-46
2021/12/30 08:25:16;;;;;;;273.75;197.40;;;;;;;24.81;43.58;101710.81;5022936;28;20058;-44
2021/12/30 08:27:44;;;;;;;270.77;190.32;;;;;;;24.85;43.70;101729.25;5023110;28;20052;-46
2021/12/30 08:30:16;;;;;;;256.15;187.13;;;;;;;25.02;43.38;101716.47;5016197;28;20037;-51
2021/12/30 08:32:45;;;;;;;256.88;188.80;;;;;;;24.95;43.47;101719.84;5002786;28;20037;-46
2021/12/30 08:35:15;;;;;;;269.55;193.30;;;;;;;24.82;43.93;101717.81;5003604;28;20033;-51
2021/12/30 08:37:44;;;;;;;277.17;197.02;;;;;;;24.81;43.67;101724.81;5008769;28;20041;-42
2021/12/30 08:40:14;;;;;;;271.52;196.35;;;;;;;24.82;43.68;101717.81;5012000;28;20041;-45
2021/12/30 08:42:43;;;;;;;263.02;191.45;;;;;;;24.86;44.02;101719.63;5002377;28;20525;-48
2021/12/30 08:45:12;;;;;;;275.25;194.95;;;;;;;24.91;43.75;101724.97;5006479;28;20041;-49
2021/12/30 08:47:40;;;;;;;276.13;200.30;;;;;;;24.84;43.97;101729.22;5010688;28;20436;-43
2021/12/30 08:50:11;;;;;;;275.88;197.85;;;;;;;24.81;44.13;101729.19;5002199;28;20033;-43
2021/12/30 08:52:40;;;;;;;287.70;202.35;;;;;;;24.79;43.93;101728.25;5003511;28;20068;-43
2021/12/30 08:55:08;;;;;;;283.30;196.50;;;;;;;24.84;43.82;101727.50;5003567;28;20030;-50
2021/12/30 08:57:39;;;;;;;271.02;197.25;;;;;;;24.83;44.16;101723.09;5003573;28;20040;-43
2021/12/30 09:00:12;;;;;;;269.85;194.18;;;;;;;24.82;43.71;101741.44;5014514;28;20037;-55
2021/12/30 09:02:41;;;;;;;265.73;191.57;;;;;;;24.82;44.03;101744.06;5022223;28;20080;-43
2021/12/30 09:05:10;;;;;;;281.90;201.25;;;;;;;24.76;43.79;101742.16;5006661;28;20096;-45
2021/12/30 09:07:38;;;;;;;291.40;209.68;;;;;;;24.80;43.93;101745.78;5004564;28;20085;-43
2021/12/30 09:10:08;;;;;;;276.92;200.77;;;;;;;24.82;43.83;101742.31;5020260;28;20422;-43
2021/12/30 09:12:37;;;;;;;287.90;206.85;;;;;;;24.78;44.31;101743.09;5026585;28;20608;-43
2021/12/30 09:15:06;;;;;;;289.08;206.88;;;;;;;24.82;44.10;101749.31;5025147;28;20025;-45
2021/12/30 09:17:34;;;;;;;295.42;208.80;;;;;;;24.80;44.03;101751.03;5019334;28;20030;-43
2021/12/30 09:20:03;;;;;;;297.50;210.48;;;;;;;24.83;44.19;101753.69;5005403;28;20126;-50
2021/12/30 09:22:30;;;;;;;304.38;211.77;;;;;;;24.79;44.22;101755.38;5006700;28;20467;-45
2021/12/30 09:24:59;;;;;;;303.45;216.40;;;;;;;24.82;44.32;101750.19;5006341;28;20486;-43
2021/12/30 09:27:27;;;;;;;299.25;221.60;;;;;;;24.82;43.95;101747.56;5006500;28;20051;-46
2021/12/30 09:29:55;;;;;;;302.48;220.10;;;;;;;24.77;44.10;101746.56;5006426;28;20061;-48
2021/12/30 09:32:24;;;;;;;311.35;220.68;;;;;;;24.83;44.26;101746.72;5006186;28;20176;-43
2021/12/30 09:34:52;;;;;;;301.33;219.50;;;;;;;24.82;44.08;101754.56;5004487;28;20048;-45
2021/12/30 09:37:21;;;;;;;299.17;214.27;;;;;;;24.84;44.33;101756.38;5014871;28;20029;-44
2021/12/30 09:39:49;;;;;;;312.70;219.25;;;;;;;24.86;44.44;101752.03;5021432;28;20032;-42
2021/12/30 09:42:18;;;;;;;315.75;226.13;;;;;;;24.84;44.03;101763.34;5004446;28;20125;-43
2021/12/30 09:44:47;;;;;;;305.83;222.02;;;;;;;24.86;44.01;101769.50;5006114;28;20364;-48
2021/12/30 09:47:15;;;;;;;311.95;223.73;;;;;;;24.84;44.10;101761.59;5020093;28;20041;-43
2021/12/30 09:49:45;;;;;;;313.25;225.40;;;;;;;24.85;44.13;101765.09;5024572;28;20041;-47
2021/12/30 09:52:14;;;;;;;309.48;223.70;;;;;;;24.85;44.06;101763.38;5020452;28;20064;-43
2021/12/30 09:54:43;;;;;;;305.83;225.63;;;;;;;24.83;44.12;101766.81;5005847;28;20582;-49
2021/12/30 09:57:12;;;;;;;314.63;226.20;;;;;;;24.84;44.39;101766.84;5005651;28;20034;-42
2021/12/30 09:59:39;;;;;;;321.35;235.45;;;;;;;24.81;43.99;101763.28;5017324;28;20064;-43
2021/12/30 10:02:10;;;;;;;316.83;228.20;;;;;;;24.84;44.26;101768.59;5023484;28;20410;-55
2021/12/30 10:04:38;;;;;;;326.73;227.93;;;;;;;24.81;44.29;101772.03;5018215;28;20034;-43
2021/12/30 10:07:20;;;;;;;313.77;223.25;;;;;;;24.85;44.33;101765.09;5014453;28;20141;-47
2021/12/30 10:09:50;;;;;;;312.75;230.75;;;;;;;24.84;44.09;101769.47;5018030;28;20066;-43
2021/12/30 10:12:39;;;;;;;319.83;231.15;;;;;;;24.83;43.94;101772.06;5005005;28;20137;-43
2021/12/30 10:15:08;;;;;;;327.00;232.40;;;;;;;24.83;44.23;101777.31;5011529;28;20040;-43
2021/12/30 10:17:37;;;;;;;330.60;237.48;;;;;;;24.81;44.19;101776.41;5005455;28;20053;-43
2021/12/30 10:20:25;;;;;;;320.75;228.27;;;;;;;24.85;44.01;101772.97;5005088;28;20083;-42
2021/12/30 10:22:55;;;;;;;328.95;237.93;;;;;;;24.86;43.93;101774.75;5000166;28;20294;-43
2021/12/30 10:25:35;;;;;;;324.83;235.45;;;;;;;24.79;44.34;101772.88;5015208;28;20566;-42
2021/12/30 10:28:23;;;;;;;326.13;234.80;;;;;;;24.83;44.39;101766.81;5024455;28;20033;-43
2021/12/30 10:30:54;;;;;;;323.67;235.88;;;;;;;24.80;44.27;101766.75;5021345;28;20045;-43
2021/12/30 10:33:26;;;;;;;330.48;233.85;;;;;;;24.81;44.15;101769.41;5018157;28;20483;-47
2021/12/30 10:35:55;;;;;;;333.20;237.48;;;;;;;24.84;44.00;101773.81;5003819;28;20069;-43
2021/12/30 10:38:29;;;;;;;332.70;238.73;;;;;;;24.92;43.93;101774.91;5003232;28;20543;-53
2021/12/30 10:41:02;;;;;;;321.77;237.52;;;;;;;24.89;44.06;101772.19;5003787;28;20056;-43
2021/12/30 10:43:45;;;;;;;331.63;236.68;;;;;;;24.83;44.31;101762.47;5004968;28;20042;-47
2021/12/30 10:46:15;;;;;;;325.88;236.00;;;;;;;24.79;44.38;101765.00;5004999;28;20462;-47
2021/12/30 10:48:53;;;;;;;323.98;234.90;;;;;;;24.95;43.83;101761.84;5004839;28;20026;-43
2021/12/30 10:51:25;;;;;;;327.83;233.23;;;;;;;24.95;43.84;101758.31;5007587;28;20152;-43
2021/12/30 10:53:56;;;;;;;315.80;230.38;;;;;;;24.92;43.92;101774.91;5021079;28;20064;-50
2021/12/30 10:56:39;;;;;;;299.67;221.15;;;;;;;24.95;44.07;101779.31;5024394;28;20095;-42
2021/12/30 10:59:22;;;;;;;315.02;223.75;;;;;;;24.99;43.79;101768.03;5021121;28;20038;-43
2021/12/30 11:01:59;;;;;;;281.15;203.18;;;;;;;25.22;43.04;101770.28;5003951;28;20141;-42
2021/12/30 11:04:48;;;;;;;288.58;196.98;;;;;;;25.15;43.09;101767.50;5008200;28;20701;-47
2021/12/30 11:07:18;;;;;;;274.48;195.63;;;;;;;25.30;43.00;101759.06;5014362;28;20103;-42
2021/12/30 11:09:49;;;;;;;270.50;190.95;;;;;;;25.24;43.24;101753.69;5022973;28;20037;-42